Time;durP1;ratioP1;P1;durP2;ratioP2;P2;SDS_P1;SDS_P2;PMS_P1;PMS_P2;Temp;Humidity;BMP_temperature;BMP_pressure;BME280_temperature;BME280_humidity;BME280_pressure;Samples;Min_cycle;Max_cycle;Signal;HPM_P1;HPM_P2
2020/12/21 00:00:06;;;;;;;;;;;;;;;22.19;25.34;99165.41;5124563;28;638;-76
2020/12/21 00:02:37;;;;;;;;;;;;;;;21.40;26.02;99176.59;5124794;28;851;-77
2020/12/21 00:05:03;;;;;;;;;;;;;;;21.51;26.44;99175.31;5106341;28;914;-76
2020/12/21 00:07:28;;;;;;;;;;;;;;;22.23;25.55;99172.66;5124580;28;941;-76
2020/12/21 00:09:54;;;;;;;;;;;;;;;22.72;24.68;99164.78;5124304;28;610;-75
2020/12/21 00:12:19;;;;;;;;;;;;;;;22.71;24.65;99163.19;5124681;28;661;-76
2020/12/21 00:14:45;;;;;;;;;;;;;;;22.74;24.85;99156.66;5124194;28;1956;-76
2020/12/21 00:17:10;;;;;;;;;;;;;;;22.66;24.73;99155.16;5124379;28;1049;-77
2020/12/21 00:19:36;;;;;;;;;;;;;;;22.90;24.33;99163.78;5123769;28;915;-76
2020/12/21 00:22:01;;;;;;;;;;;;;;;21.94;25.70;99159.97;5124410;28;888;-76
2020/12/21 00:24:26;;;;;;;;;;;;;;;21.44;26.47;99166.06;5123513;28;638;-76
2020/12/21 00:26:52;;;;;;;;;;;;;;;21.25;26.84;99164.56;5124192;28;626;-76
2020/12/21 00:29:18;;;;;;;;;;;;;;;22.01;25.85;99165.56;5123756;28;665;-76
2020/12/21 00:31:47;;;;;;;;;;;;;;;22.53;24.99;99180.41;5106065;28;958;-76
2020/12/21 00:34:12;;;;;;;;;;;;;;;22.51;25.09;99176.41;5105814;28;1890;-76
2020/12/21 00:36:42;;;;;;;;;;;;;;;22.88;24.73;99178.41;5106536;28;833;-76
2020/12/21 00:39:07;;;;;;;;;;;;;;;22.77;24.85;99178.50;5105882;28;1011;-76
2020/12/21 00:41:33;;;;;;;;;;;;;;;22.20;25.31;99173.50;5124305;28;689;-76
2020/12/21 00:43:58;;;;;;;;;;;;;;;21.38;26.45;99179.03;5123169;28;912;-76
2020/12/21 00:46:33;;;;;;;;;;;;;;;21.42;26.27;99169.31;5123601;28;874;-76
2020/12/21 00:48:59;;;;;;;;;;;;;;;21.71;26.48;99164.22;5089364;28;1114;-76
2020/12/21 00:51:25;;;;;;;;;;;;;;;22.33;25.31;99166.06;5089586;28;1315;-76
2020/12/21 00:53:50;;;;;;;;;;;;;;;22.62;25.03;99169.38;5089063;28;1155;-76
2020/12/21 00:56:16;;;;;;;;;;;;;;;22.79;24.65;99164.69;5123893;28;1902;-76
2020/12/21 00:58:42;;;;;;;;;;;;;;;22.91;24.40;99165.41;5105348;28;982;-76
2020/12/21 01:01:08;;;;;;;;;;;;;;;22.87;24.28;99171.88;5123379;28;903;-76
2020/12/21 01:03:37;;;;;;;;;;;;;;;22.06;25.31;99174.41;5122743;28;953;-76
2020/12/21 01:06:03;;;;;;;;;;;;;;;21.27;26.28;99174.22;5123596;28;602;-76
2020/12/21 01:08:28;;;;;;;;;;;;;;;21.40;26.98;99165.25;5105228;28;647;-76
2020/12/21 01:10:54;;;;;;;;;;;;;;;22.32;25.46;99170.13;5123602;28;696;-76
2020/12/21 01:13:19;;;;;;;;;;;;;;;22.64;24.62;99166.13;5122448;28;802;-76
2020/12/21 01:15:44;;;;;;;;;;;;;;;22.75;24.53;99158.28;5105237;28;1970;-76
2020/12/21 01:18:10;;;;;;;;;;;;;;;22.79;24.31;99161.03;5122651;28;861;-76
2020/12/21 01:20:35;;;;;;;;;;;;;;;22.81;24.25;99162.25;5105433;28;654;-76
2020/12/21 01:23:01;;;;;;;;;;;;;;;22.57;24.36;99157.69;5122827;28;682;-76
2020/12/21 01:25:27;;;;;;;;;;;;;;;21.74;25.58;99156.91;5122972;28;558;-76
2020/12/21 01:27:52;;;;;;;;;;;;;;;21.57;26.26;99164.34;5122457;28;835;-76
2020/12/21 01:30:21;;;;;;;;;;;;;;;21.96;26.04;99154.66;5122728;28;845;-77
2020/12/21 01:32:46;;;;;;;;;;;;;;;22.30;25.24;99151.94;5122714;28;977;-76
2020/12/21 01:35:11;;;;;;;;;;;;;;;22.58;24.58;99153.59;5122503;28;1905;-76
2020/12/21 01:37:38;;;;;;;;;;;;;;;22.86;24.51;99153.25;5122162;28;972;-76
2020/12/21 01:40:03;;;;;;;;;;;;;;;22.80;24.26;99152.13;5121695;28;940;-76
2020/12/21 01:42:29;;;;;;;;;;;;;;;23.03;24.24;99153.47;5122260;28;913;-76
2020/12/21 01:44:54;;;;;;;;;;;;;;;21.88;25.20;99150.31;5122039;28;987;-76
2020/12/21 01:47:20;;;;;;;;;;;;;;;21.36;26.06;99147.53;5122377;28;650;-76
2020/12/21 01:49:45;;;;;;;;;;;;;;;21.17;26.99;99143.97;5121800;28;598;-75
2020/12/21 01:52:10;;;;;;;;;;;;;;;22.00;25.77;99141.28;5122504;28;697;-76
2020/12/21 01:54:36;;;;;;;;;;;;;;;22.50;24.98;99140.75;5121501;28;1945;-76
2020/12/21 01:57:02;;;;;;;;;;;;;;;22.59;24.92;99139.03;5104255;28;879;-76
2020/12/21 01:59:27;;;;;;;;;;;;;;;22.60;24.94;99126.44;5121862;28;1034;-75
2020/12/21 02:01:53;;;;;;;;;;;;;;;22.83;24.38;99131.41;5122140;28;754;-76
2020/12/21 02:04:21;;;;;;;;;;;;;;;22.25;24.90;99127.66;5104067;28;665;-76
2020/12/21 02:06:47;;;;;;;;;;;;;;;21.33;26.29;99135.78;5104790;28;661;-76
2020/12/21 02:09:12;;;;;;;;;;;;;;;20.97;27.44;99135.19;5121391;28;1043;-76
2020/12/21 02:11:41;;;;;;;;;;;;;;;22.24;25.34;99134.56;5121661;28;907;-76
2020/12/21 02:14:06;;;;;;;;;;;;;;;22.76;24.51;99134.34;5103836;28;1966;-75
2020/12/21 02:16:32;;;;;;;;;;;;;;;22.89;24.37;99134.59;5122180;28;694;-76
2020/12/21 02:18:57;;;;;;;;;;;;;;;22.91;24.46;99137.03;5103775;28;647;-76
2020/12/21 02:21:22;;;;;;;;;;;;;;;22.54;24.47;99130.97;5122016;28;735;-76
2020/12/21 02:23:48;;;;;;;;;;;;;;;21.57;25.74;99127.53;5120942;28;852;-76
2020/12/21 02:26:13;;;;;;;;;;;;;;;21.27;26.28;99134.59;5121669;28;859;-76
2020/12/21 02:28:39;;;;;;;;;;;;;;;21.59;26.39;99133.56;5120982;28;873;-76
2020/12/21 02:31:04;;;;;;;;;;;;;;;22.25;25.49;99133.34;5121994;28;709;-75
2020/12/21 02:33:30;;;;;;;;;;;;;;;22.31;25.35;99134.47;5120886;28;590;-76
2020/12/21 02:35:55;;;;;;;;;;;;;;;22.69;24.71;99125.09;5104160;28;1918;-76
2020/12/21 02:38:20;;;;;;;;;;;;;;;22.99;24.52;99130.00;5120608;28;969;-75
2020/12/21 02:40:48;;;;;;;;;;;;;;;22.93;24.46;99134.53;5121200;28;1023;-76
2020/12/21 02:43:13;;;;;;;;;;;;;;;22.67;24.56;99122.69;5120644;28;853;-75
2020/12/21 02:45:39;;;;;;;;;;;;;;;21.67;25.81;99129.47;5103884;28;722;-76
2020/12/21 02:48:04;;;;;;;;;;;;;;;21.26;26.54;99130.16;5121009;28;634;-76
2020/12/21 02:50:30;;;;;;;;;;;;;;;21.85;26.29;99124.41;5121323;28;643;-76
2020/12/21 02:52:55;;;;;;;;;;;;;;;22.53;24.94;99122.88;5120727;28;935;-76
2020/12/21 02:55:20;;;;;;;;;;;;;;;22.55;25.02;99121.25;5120752;28;1998;-75
2020/12/21 02:57:46;;;;;;;;;;;;;;;22.84;24.78;99127.31;5121034;28;939;-76
2020/12/21 03:00:12;;;;;;;;;;;;;;;22.73;24.78;99128.69;5120995;28;622;-76
2020/12/21 03:02:37;;;;;;;;;;;;;;;22.89;24.43;99123.22;5103529;28;606;-76
2020/12/21 03:05:03;;;;;;;;;;;;;;;22.06;25.14;99123.38;5120346;28;939;-76
2020/12/21 03:07:28;;;;;;;;;;;;;;;21.08;26.68;99124.59;5121068;28;907;-76
2020/12/21 03:09:54;;;;;;;;;;;;;;;21.41;26.46;99118.75;5120625;28;1089;-76
2020/12/21 03:12:19;;;;;;;;;;;;;;;22.29;25.45;99119.94;5121202;28;705;-76
2020/12/21 03:14:45;;;;;;;;;;;;;;;22.49;25.31;99122.13;5120755;28;1977;-76
2020/12/21 03:17:10;;;;;;;;;;;;;;;22.59;24.92;99126.88;5121265;28;681;-76
2020/12/21 03:19:35;;;;;;;;;;;;;;;22.67;24.53;99116.22;5120083;28;895;-76
2020/12/21 03:22:01;;;;;;;;;;;;;;;22.71;24.47;99123.47;5121103;28;914;-76
2020/12/21 03:24:26;;;;;;;;;;;;;;;22.44;24.56;99119.78;5120587;28;950;-76
2020/12/21 03:26:52;;;;;;;;;;;;;;;21.76;25.50;99120.44;5103185;28;701;-76
2020/12/21 03:29:17;;;;;;;;;;;;;;;21.56;25.86;99123.88;5120555;28;749;-76
2020/12/21 03:31:43;;;;;;;;;;;;;;;21.94;26.12;99120.28;5120848;28;677;-76
2020/12/21 03:34:09;;;;;;;;;;;;;;;22.46;24.86;99122.97;5119971;28;1977;-76
2020/12/21 03:36:34;;;;;;;;;;;;;;;22.74;24.50;99122.63;5120737;28;800;-76
2020/12/21 03:39:00;;;;;;;;;;;;;;;22.81;24.49;99119.69;5120142;28;968;-76
2020/12/21 03:41:25;;;;;;;;;;;;;;;22.83;24.48;99119.25;5120802;28;606;-76
2020/12/21 03:43:50;;;;;;;;;;;;;;;22.56;24.67;99122.84;5120349;28;749;-76
2020/12/21 03:46:16;;;;;;;;;;;;;;;21.39;26.36;99112.69;5103490;28;705;-76
2020/12/21 03:48:41;;;;;;;;;;;;;;;21.26;26.30;99124.50;5119862;28;916;-76
2020/12/21 03:51:07;;;;;;;;;;;;;;;21.14;26.77;99118.50;5120614;28;879;-75
2020/12/21 03:53:32;;;;;;;;;;;;;;;22.27;25.30;99115.91;5119804;28;938;-76
2020/12/21 03:55:58;;;;;;;;;;;;;;;22.68;24.53;99118.63;5120930;28;1909;-76
2020/12/21 03:58:23;;;;;;;;;;;;;;;22.92;24.28;99113.06;5120086;28;654;-76
2020/12/21 04:00:49;;;;;;;;;;;;;;;22.93;24.15;99111.84;5122664;28;649;-73
2020/12/21 04:03:14;;;;;;;;;;;;;;;21.50;26.00;99107.75;5123393;28;989;-75
2020/12/21 04:05:40;;;;;;;;;;;;;;;21.45;26.44;99099.69;5123961;28;808;-76
2020/12/21 04:08:05;;;;;;;;;;;;;;;21.75;26.04;99110.34;5123688;28;874;-76
2020/12/21 04:10:30;;;;;;;;;;;;;;;22.29;25.32;99104.97;5124115;28;674;-76
2020/12/21 04:12:56;;;;;;;;;;;;;;;22.59;24.51;99110.66;5124119;28;602;-75
2020/12/21 04:15:21;;;;;;;;;;;;;;;22.71;24.66;99106.44;5123862;28;1894;-75
2020/12/21 04:17:47;;;;;;;;;;;;;;;22.68;24.68;99107.28;5123661;28;1038;-76
2020/12/21 04:20:12;;;;;;;;;;;;;;;22.73;24.61;99109.66;5123537;28;997;-76
2020/12/21 04:22:40;;;;;;;;;;;;;;;22.46;24.70;99118.09;5123798;28;1101;-76
2020/12/21 04:25:06;;;;;;;;;;;;;;;21.71;25.83;99109.56;5123707;28;705;-76
2020/12/21 04:27:31;;;;;;;;;;;;;;;21.02;26.60;99123.44;5123980;28;611;-76
2020/12/21 04:29:57;;;;;;;;;;;;;;;21.62;26.38;99107.25;5123656;28;642;-76
2020/12/21 04:32:23;;;;;;;;;;;;;;;22.38;25.00;99110.09;5123587;28;873;-76
2020/12/21 04:34:49;;;;;;;;;;;;;;;22.39;24.86;99111.72;5123039;28;1906;-75
2020/12/21 04:37:14;;;;;;;;;;;;;;;22.61;24.77;99113.06;5123768;28;896;-76
2020/12/21 04:39:40;;;;;;;;;;;;;;;22.71;24.54;99112.13;5123295;28;1013;-76
2020/12/21 04:42:05;;;;;;;;;;;;;;;22.67;24.37;99113.38;5123821;28;637;-76
2020/12/21 04:44:30;;;;;;;;;;;;;;;21.87;25.65;99111.88;5123066;28;954;-76
2020/12/21 04:46:56;;;;;;;;;;;;;;;20.92;26.75;99118.66;5105842;28;810;-76
2020/12/21 04:49:22;;;;;;;;;;;;;;;21.80;26.24;99110.69;5123088;28;852;-76
2020/12/21 04:51:47;;;;;;;;;;;;;;;22.38;24.90;99099.56;5106111;28;814;-76
2020/12/21 04:54:13;;;;;;;;;;;;;;;22.30;25.01;99109.41;5105167;28;1906;-75
2020/12/21 04:56:40;;;;;;;;;;;;;;;22.84;24.57;99112.31;5105598;28;970;-75
2020/12/21 04:59:05;;;;;;;;;;;;;;;22.83;24.22;99108.69;5105421;28;614;-76
2020/12/21 05:01:31;;;;;;;;;;;;;;;22.42;24.75;99105.19;5123113;28;901;-76
2020/12/21 05:03:57;;;;;;;;;;;;;;;21.31;26.39;99117.63;5122434;28;819;-74
2020/12/21 05:06:22;;;;;;;;;;;;;;;20.94;26.85;99121.09;5105976;28;868;-75
2020/12/21 05:08:48;;;;;;;;;;;;;;;21.75;26.47;99105.50;5122460;28;666;-74
2020/12/21 05:11:13;;;;;;;;;;;;;;;22.38;25.24;99110.09;5104327;28;1331;-76
2020/12/21 05:13:38;;;;;;;;;;;;;;;22.72;24.69;99118.59;5122601;28;614;-77
2020/12/21 05:16:04;;;;;;;;;;;;;;;22.88;24.24;99115.97;5123009;28;1902;-76
2020/12/21 05:18:36;;;;;;;;;;;;;;;22.97;24.31;99121.91;5121958;28;865;-76
2020/12/21 05:21:01;;;;;;;;;;;;;;;22.81;24.56;99122.50;5105898;28;1039;-76
2020/12/21 05:23:27;;;;;;;;;;;;;;;22.92;24.16;99116.72;5122398;28;622;-76
2020/12/21 05:25:56;;;;;;;;;;;;;;;21.83;25.61;99120.41;5123046;28;610;-76
2020/12/21 05:28:22;;;;;;;;;;;;;;;21.76;25.84;99120.44;5104644;28;698;-76
2020/12/21 05:30:49;;;;;;;;;;;;;;;21.56;26.00;99117.44;5122466;28;824;-76
2020/12/21 05:33:15;;;;;;;;;;;;;;;22.08;25.53;99120.94;5121695;28;958;-76
2020/12/21 05:35:40;;;;;;;;;;;;;;;22.50;24.84;99118.88;5104615;28;1980;-76
2020/12/21 05:38:06;;;;;;;;;;;;;;;22.48;24.80;99126.97;5104553;28;698;-76
2020/12/21 05:40:31;;;;;;;;;;;;;;;22.71;24.41;99128.34;5122478;28;996;-77
2020/12/21 05:42:57;;;;;;;;;;;;;;;22.69;24.48;99137.28;5122320;28;638;-76
2020/12/21 05:45:22;;;;;;;;;;;;;;;22.09;25.24;99133.09;5122032;28;923;-76
2020/12/21 05:47:48;;;;;;;;;;;;;;;21.42;26.28;99140.19;5122001;28;882;-76
2020/12/21 05:50:18;;;;;;;;;;;;;;;21.29;26.32;99143.47;5122342;28;985;-76
2020/12/21 05:52:44;;;;;;;;;;;;;;;22.38;25.42;99133.59;5122026;28;677;-76
2020/12/21 05:55:10;;;;;;;;;;;;;;;22.51;25.11;99136.69;5104235;28;1981;-76
2020/12/21 05:57:35;;;;;;;;;;;;;;;22.65;24.84;99130.03;5121967;28;654;-76
2020/12/21 06:00:01;;;;;;;;;;;;;;;22.89;24.48;99137.44;5121468;28;1107;-76
2020/12/21 06:02:32;;;;;;;;;;;;;;;22.92;24.05;99138.63;5104970;28;914;-76
2020/12/21 06:05:02;;;;;;;;;;;;;;;22.08;25.20;99142.81;5104035;28;821;-76
2020/12/21 06:07:28;;;;;;;;;;;;;;;21.38;26.12;99145.88;5104636;28;607;-76
2020/12/21 06:09:54;;;;;;;;;;;;;;;21.08;26.63;99154.94;5121603;28;760;-76
2020/12/21 06:12:20;;;;;;;;;;;;;;;21.97;26.05;99153.47;5104429;28;686;-76
2020/12/21 06:14:46;;;;;;;;;;;;;;;22.25;25.33;99150.34;5103402;28;1894;-76
2020/12/21 06:17:14;;;;;;;;;;;;;;;22.45;25.23;99155.41;5121659;28;849;-75
2020/12/21 06:19:40;;;;;;;;;;;;;;;22.73;24.75;99155.03;5103881;28;1078;-76
2020/12/21 06:22:05;;;;;;;;;;;;;;;22.93;24.53;99152.38;5103832;28;658;-76
2020/12/21 06:24:35;;;;;;;;;;;;;;;22.28;25.01;99152.34;5121438;28;646;-77
2020/12/21 06:27:10;;;;;;;;;;;;;;;21.33;26.32;99149.94;5121947;28;705;-76
2020/12/21 06:29:35;;;;;;;;;;;;;;;21.35;26.88;99154.38;5120807;28;960;-75
2020/12/21 06:32:01;;;;;;;;;;;;;;;22.41;25.25;99143.28;5103802;28;902;-76
2020/12/21 06:34:27;;;;;;;;;;;;;;;22.68;24.74;99152.66;5121007;28;1914;-76
2020/12/21 06:36:58;;;;;;;;;;;;;;;22.87;24.54;99157.69;5121562;28;607;-76
2020/12/21 06:39:24;;;;;;;;;;;;;;;22.80;24.49;99159.84;5103092;28;1064;-75
2020/12/21 06:41:59;;;;;;;;;;;;;;;22.02;25.60;99159.50;5121592;28;569;-76
2020/12/21 06:44:27;;;;;;;;;;;;;;;21.31;26.60;99174.25;5121082;28;813;-76
2020/12/21 06:46:52;;;;;;;;;;;;;;;21.20;27.45;99167.81;5103532;28;875;-76
2020/12/21 06:49:18;;;;;;;;;;;;;;;22.05;25.86;99155.78;5120969;28;950;-75
2020/12/21 06:51:44;;;;;;;;;;;;;;;22.34;25.13;99162.00;5103551;28;898;-76
2020/12/21 06:54:10;;;;;;;;;;;;;;;22.77;24.79;99161.47;5103187;28;1909;-76
2020/12/21 06:56:36;;;;;;;;;;;;;;;22.84;24.57;99164.22;5121308;28;543;-76
2020/12/21 06:59:01;;;;;;;;;;;;;;;22.41;24.87;99166.78;5120683;28;1026;-76
2020/12/21 07:01:27;;;;;;;;;;;;;;;21.35;26.66;99175.03;5121431;28;909;-76
2020/12/21 07:03:53;;;;;;;;;;;;;;;21.32;26.67;99176.66;5120717;28;883;-76
2020/12/21 07:06:18;;;;;;;;;;;;;;;21.81;26.58;99169.00;5121528;28;550;-75
2020/12/21 07:08:44;;;;;;;;;;;;;;;22.35;25.40;99168.47;5120430;28;1336;-75
2020/12/21 07:11:14;;;;;;;;;;;;;;;22.62;25.13;99168.56;5121601;28;626;-76
2020/12/21 07:13:39;;;;;;;;;;;;;;;22.78;24.80;99167.97;5102805;28;1037;-76
2020/12/21 07:16:05;;;;;;;;;;;;;;;22.80;24.69;99166.31;5121376;28;1913;-77
2020/12/21 07:18:31;;;;;;;;;;;;;;;21.88;26.04;99173.78;5102728;28;993;-76
2020/12/21 07:20:56;;;;;;;;;;;;;;;21.24;26.84;99180.75;5103900;28;660;-76
2020/12/21 07:23:22;;;;;;;;;;;;;;;20.92;27.58;99180.09;5120403;28;642;-76
2020/12/21 07:25:51;;;;;;;;;;;;;;;21.97;26.29;99176.16;5121486;28;697;-76
2020/12/21 07:28:23;;;;;;;;;;;;;;;22.25;25.77;99173.03;5120063;28;830;-76
2020/12/21 07:30:48;;;;;;;;;;;;;;;22.57;25.23;99174.69;5103293;28;937;-76
2020/12/21 07:33:14;;;;;;;;;;;;;;;22.59;24.97;99170.22;5120571;28;850;-76
2020/12/21 07:35:39;;;;;;;;;;;;;;;22.33;25.32;99174.59;5123372;28;1913;-76
2020/12/21 07:38:11;;;;;;;;;;;;;;;21.63;26.40;99185.31;5124638;28;661;-76
2020/12/21 07:40:38;;;;;;;;;;;;;;;21.42;26.48;99185.50;5124834;28;1004;-76
2020/12/21 07:43:03;;;;;;;;;;;;;;;22.06;26.09;99179.28;5124147;28;947;-76
2020/12/21 07:45:29;;;;;;;;;;;;;;;22.59;25.19;99172.25;5106741;28;981;-76
2020/12/21 07:47:54;;;;;;;;;;;;;;;22.65;24.96;99170.56;5106900;28;1010;-76
2020/12/21 07:50:19;;;;;;;;;;;;;;;22.83;24.94;99162.59;5106990;28;776;-76
2020/12/21 07:52:45;;;;;;;;;;;;;;;22.79;24.92;99158.22;5107054;28;661;-76
2020/12/21 07:55:11;;;;;;;;;;;;;;;21.63;26.40;99161.88;5106859;28;1978;-75
2020/12/21 07:57:36;;;;;;;;;;;;;;;21.75;25.98;99162.16;5124326;28;943;-76
2020/12/21 08:00:03;;;;;;;;;;;;;;;21.56;26.58;99157.06;5123725;28;849;-76
2020/12/21 08:02:30;;;;;;;;;;;;;;;22.36;25.42;99158.75;5124449;28;892;-76
2020/12/21 08:04:57;;;;;;;;;;;;;;;22.76;24.87;99157.03;5124168;28;672;-75
2020/12/21 08:07:33;;;;;;;;;;;;;;;22.85;24.73;99157.31;5124540;28;674;-76
2020/12/21 08:09:58;;;;;;;;;;;;;;;22.81;24.46;99162.25;5106999;28;717;-76
2020/12/21 08:12:24;;;;;;;;;;;;;;;22.69;24.55;99165.66;5124041;28;1055;-77
2020/12/21 08:14:58;;;;;;;;;;;;;;;21.68;26.06;99165.06;5105665;28;1905;-77
2020/12/21 08:17:26;;;;;;;;;;;;;;;21.18;26.52;99165.38;5124171;28;906;-76
2020/12/21 08:19:54;;;;;;;;;;;;;;;21.91;26.00;99166.47;5106144;28;662;-76
2020/12/21 08:22:21;;;;;;;;;;;;;;;22.49;24.96;99165.47;5106806;28;818;-76
2020/12/21 08:24:58;;;;;;;;;;;;;;;22.80;24.38;99160.63;5123911;28;673;-76
2020/12/21 08:27:24;;;;;;;;;;;;;;;22.97;24.32;99163.69;5106282;28;1005;-76
2020/12/21 08:29:50;;;;;;;;;;;;;;;23.01;24.29;99164.44;5123199;28;859;-76
2020/12/21 08:32:16;;;;;;;;;;;;;;;21.71;25.64;99167.06;5123856;28;844;-76
2020/12/21 08:34:42;;;;;;;;;;;;;;;21.43;26.27;99175.78;5123495;28;1902;-76
2020/12/21 08:37:07;;;;;;;;;;;;;;;21.81;25.74;99168.16;5123997;28;676;-76
2020/12/21 08:39:32;;;;;;;;;;;;;;;22.36;25.18;99172.91;5122931;28;1164;-75
2020/12/21 08:42:07;;;;;;;;;;;;;;;22.71;24.34;99174.53;5123410;28;1034;-76
2020/12/21 08:44:36;;;;;;;;;;;;;;;22.68;24.46;99169.69;5123142;28;844;-76
2020/12/21 08:47:02;;;;;;;;;;;;;;;22.79;24.54;99164.69;5123631;28;868;-76
2020/12/21 08:49:28;;;;;;;;;;;;;;;22.75;24.45;99158.28;5105454;28;682;-76
2020/12/21 08:52:00;;;;;;;;;;;;;;;22.15;25.05;99154.09;5105764;28;824;-77
2020/12/21 08:54:26;;;;;;;;;;;;;;;21.39;26.05;99160.81;5105448;28;1901;-75
2020/12/21 08:56:57;;;;;;;;;;;;;;;21.42;26.79;99151.50;5105979;28;1039;-76
2020/12/21 08:59:22;;;;;;;;;;;;;;;22.16;25.55;99154.91;5122570;28;929;-76
2020/12/21 09:01:47;;;;;;;;;;;;;;;22.47;25.14;99147.28;5123495;28;838;-76
2020/12/21 09:04:13;;;;;;;;;;;;;;;22.77;24.11;99155.00;5123374;28;649;-76
2020/12/21 09:06:38;;;;;;;;;;;;;;;22.80;24.33;99148.50;5123581;28;756;-76
2020/12/21 09:09:04;;;;;;;;;;;;;;;22.82;24.37;99151.69;5122915;28;733;-76
2020/12/21 09:11:30;;;;;;;;;;;;;;;21.21;26.51;99147.59;5123156;28;885;-76
2020/12/21 09:13:55;;;;;;;;;;;;;;;21.23;26.16;99153.63;5122215;28;854;-76
2020/12/21 09:16:21;;;;;;;;;;;;;;;20.97;27.57;99148.53;5122963;28;1913;-75
2020/12/21 09:18:47;;;;;;;;;;;;;;;22.14;25.25;99141.16;5122696;28;693;-76
2020/12/21 09:21:18;;;;;;;;;;;;;;;22.55;24.85;99146.75;5105516;28;772;-76
2020/12/21 09:23:44;;;;;;;;;;;;;;;22.76;24.46;99137.19;5122307;28;835;-76
2020/12/21 09:26:09;;;;;;;;;;;;;;;22.68;24.62;99135.66;5105237;28;976;-76
2020/12/21 09:28:35;;;;;;;;;;;;;;;22.85;24.37;99131.78;5104153;28;965;-76
2020/12/21 09:31:00;;;;;;;;;;;;;;;22.77;24.50;99130.25;5123063;28;860;-76
2020/12/21 09:33:25;;;;;;;;;;;;;;;22.19;24.96;99131.41;5122044;28;705;-76
2020/12/21 09:35:51;;;;;;;;;;;;;;;21.50;25.79;99119.91;5123111;28;1966;-77
2020/12/21 09:38:16;;;;;;;;;;;;;;;21.77;26.13;99128.56;5122036;28;614;-76
2020/12/21 09:40:42;;;;;;;;;;;;;;;22.36;24.96;99119.03;5122180;28;1023;-76
2020/12/21 09:43:07;;;;;;;;;;;;;;;22.58;24.66;99116.72;5121830;28;904;-76
2020/12/21 09:45:33;;;;;;;;;;;;;;;22.86;24.15;99110.69;5122403;28;918;-76
2020/12/21 09:47:58;;;;;;;;;;;;;;;22.76;24.59;99108.81;5122187;28;611;-76
2020/12/21 09:50:23;;;;;;;;;;;;;;;21.79;25.35;99111.13;5104653;28;659;-76
2020/12/21 09:52:49;;;;;;;;;;;;;;;21.80;25.55;99102.19;5122183;28;637;-76
2020/12/21 09:55:15;;;;;;;;;;;;;;;21.05;26.34;99111.31;5103874;28;1972;-76
2020/12/21 09:57:41;;;;;;;;;;;;;;;22.11;25.38;99102.31;5121341;28;923;-77
2020/12/21 10:00:06;;;;;;;;;;;;;;;22.26;25.13;99092.41;5121711;28;1009;-76
2020/12/21 10:02:32;;;;;;;;;;;;;;;22.80;24.42;99103.88;5122331;28;606;-77
2020/12/21 10:04:57;;;;;;;;;;;;;;;22.71;24.29;99095.09;5121930;28;618;-76
2020/12/21 10:07:23;;;;;;;;;;;;;;;21.74;25.49;99094.59;5122172;28;662;-76
2020/12/21 10:09:48;;;;;;;;;;;;;;;21.68;25.65;99091.41;5121148;28;924;-77
2020/12/21 10:12:13;;;;;;;;;;;;;;;21.90;25.58;99091.97;5121994;28;905;-76
2020/12/21 10:14:42;;;;;;;;;;;;;;;22.46;24.97;99092.59;5121337;28;1961;-76
2020/12/21 10:17:08;;;;;;;;;;;;;;;22.62;24.57;99086.28;5121916;28;694;-77
2020/12/21 10:19:33;;;;;;;;;;;;;;;22.88;23.99;99091.22;5121743;28;702;-76
2020/12/21 10:21:59;;;;;;;;;;;;;;;22.85;24.18;99094.91;5121798;28;646;-76
2020/12/21 10:24:24;;;;;;;;;;;;;;;22.11;24.87;99082.47;5121301;28;856;-76
2020/12/21 10:26:50;;;;;;;;;;;;;;;21.18;26.22;99091.00;5121912;28;891;-76
2020/12/21 10:29:15;;;;;;;;;;;;;;;20.98;26.46;99093.56;5121078;28;946;-76
2020/12/21 10:31:46;;;;;;;;;;;;;;;21.78;26.03;99084.03;5121793;28;642;-76
2020/12/21 10:34:12;;;;;;;;;;;;;;;22.32;25.11;99085.03;5121280;28;634;-76
2020/12/21 10:36:37;;;;;;;;;;;;;;;22.64;24.51;99083.84;5104362;28;1917;-76
2020/12/21 10:39:03;;;;;;;;;;;;;;;22.71;24.46;99078.06;5120586;28;1053;-76
2020/12/21 10:41:32;;;;;;;;;;;;;;;22.71;24.16;99083.75;5121041;28;1018;-75
2020/12/21 10:43:57;;;;;;;;;;;;;;;22.71;24.33;99083.75;5120955;28;836;-76
2020/12/21 10:46:23;;;;;;;;;;;;;;;23.01;23.86;99079.28;5121480;28;713;-76
2020/12/21 10:48:48;;;;;;;;;;;;;;;21.74;25.52;99077.59;5121088;28;637;-76
2020/12/21 10:51:14;;;;;;;;;;;;;;;21.44;26.03;99066.94;5121543;28;626;-76
2020/12/21 10:53:39;;;;;;;;;;;;;;;21.30;26.13;99071.53;5102685;28;941;-76
2020/12/21 10:56:05;;;;;;;;;;;;;;;21.86;26.01;99077.03;5121178;28;1906;-75
2020/12/21 10:58:31;;;;;;;;;;;;;;;22.23;25.03;99070.59;5120609;28;1011;-75
2020/12/21 11:00:57;;;;;;;;;;;;;;;22.65;24.47;99068.44;5121245;28;669;-75
2020/12/21 11:03:22;;;;;;;;;;;;;;;22.88;24.21;99071.34;5120824;28;652;-76
2020/12/21 11:05:47;;;;;;;;;;;;;;;22.86;24.38;99068.13;5121225;28;614;-76
2020/12/21 11:08:13;;;;;;;;;;;;;;;22.84;23.92;99070.56;5120449;28;1027;-75
2020/12/21 11:10:38;;;;;;;;;;;;;;;21.69;25.78;99063.88;5123468;28;904;-75
2020/12/21 11:13:04;;;;;;;;;;;;;;;21.22;26.42;99067.09;5124928;28;912;-76
2020/12/21 11:15:29;;;;;;;;;;;;;;;21.46;26.76;99058.84;5124880;28;1922;-76
2020/12/21 11:17:55;;;;;;;;;;;;;;;22.06;25.48;99066.69;5125012;28;591;-76
2020/12/21 11:20:20;;;;;;;;;;;;;;;22.44;24.93;99057.38;5124932;28;728;-76
2020/12/21 11:22:46;;;;;;;;;;;;;;;22.53;24.92;99049.94;5124684;28;927;-76
2020/12/21 11:25:12;;;;;;;;;;;;;;;22.77;24.23;99058.53;5124334;28;837;-75
2020/12/21 11:27:37;;;;;;;;;;;;;;;22.60;24.55;99054.72;5125024;28;1108;-76
2020/12/21 11:30:04;;;;;;;;;;;;;;;21.63;25.69;99052.22;5124709;28;657;-76
2020/12/21 11:32:29;;;;;;;;;;;;;;;21.45;25.65;99054.38;5125032;28;725;-76
2020/12/21 11:34:55;;;;;;;;;;;;;;;21.52;26.57;99057.97;5124684;28;1902;-76
2020/12/21 11:37:20;;;;;;;;;;;;;;;22.53;24.74;99047.09;5124569;28;955;-76
2020/12/21 11:39:45;;;;;;;;;;;;;;;22.66;24.51;99046.53;5123965;28;1118;-75
2020/12/21 11:42:11;;;;;;;;;;;;;;;22.86;24.09;99053.94;5124732;28;914;-75
2020/12/21 11:44:36;;;;;;;;;;;;;;;22.49;24.49;99051.25;5106846;28;701;-76
2020/12/21 11:47:07;;;;;;;;;;;;;;;21.66;25.80;99054.22;5124929;28;660;-76
2020/12/21 11:49:33;;;;;;;;;;;;;;;21.66;25.76;99057.03;5106342;28;765;-75
2020/12/21 11:51:58;;;;;;;;;;;;;;;21.62;26.03;99053.44;5124185;28;1052;-75
2020/12/21 11:54:23;;;;;;;;;;;;;;;22.20;25.28;99054.44;5123656;28;1901;-76
2020/12/21 11:56:53;;;;;;;;;;;;;;;22.63;24.48;99053.84;5124584;28;1029;-76
2020/12/21 11:59:19;;;;;;;;;;;;;;;22.76;24.32;99049.22;5124065;28;824;-76
2020/12/21 12:01:44;;;;;;;;;;;;;;;22.67;24.08;99048.94;5124678;28;626;-76
2020/12/21 12:04:10;;;;;;;;;;;;;;;21.74;25.64;99047.22;5124018;28;666;-76
2020/12/21 12:06:35;;;;;;;;;;;;;;;21.45;26.30;99043.06;5124101;28;991;-76
2020/12/21 12:09:01;;;;;;;;;;;;;;;21.95;25.63;99048.22;5123655;28;875;-75
2020/12/21 12:11:26;;;;;;;;;;;;;;;22.48;24.66;99046.78;5123936;28;948;-75
2020/12/21 12:13:51;;;;;;;;;;;;;;;22.45;24.82;99056.16;5123676;28;642;-76
2020/12/21 12:16:24;;;;;;;;;;;;;;;22.63;24.36;99042.50;5124139;28;1976;-76
2020/12/21 12:18:50;;;;;;;;;;;;;;;22.86;23.91;99050.28;5123664;28;697;-76
2020/12/21 12:21:22;;;;;;;;;;;;;;;22.76;24.20;99052.06;5123245;28;906;-76
2020/12/21 12:23:47;;;;;;;;;;;;;;;22.10;24.86;99056.16;5123315;28;874;-76
2020/12/21 12:26:19;;;;;;;;;;;;;;;21.69;25.63;99052.56;5124025;28;937;-75
2020/12/21 12:28:44;;;;;;;;;;;;;;;21.42;25.99;99049.59;5105745;28;650;-76
2020/12/21 12:31:16;;;;;;;;;;;;;;;22.09;25.28;99048.84;5124109;28;718;-76
2020/12/21 12:33:42;;;;;;;;;;;;;;;22.32;24.93;99056.69;5105446;28;706;-76
2020/12/21 12:36:07;;;;;;;;;;;;;;;22.51;24.54;99060.13;5123650;28;1901;-76
2020/12/21 12:38:33;;;;;;;;;;;;;;;22.58;24.69;99057.16;5122787;28;898;-75
2020/12/21 12:40:58;;;;;;;;;;;;;;;22.70;24.48;99052.97;5123645;28;1085;-76
2020/12/21 12:43:23;;;;;;;;;;;;;;;22.78;24.24;99060.94;5123132;28;716;-76
2020/12/21 12:45:49;;;;;;;;;;;;;;;21.66;25.80;99054.22;5123502;28;678;-76
2020/12/21 12:48:14;;;;;;;;;;;;;;;21.11;26.26;99057.91;5123046;28;639;-75
2020/12/21 12:50:40;;;;;;;;;;;;;;;21.33;26.54;99059.34;5123551;28;1136;-76
2020/12/21 12:53:05;;;;;;;;;;;;;;;22.31;25.23;99062.78;5122710;28;895;-76
2020/12/21 12:55:31;;;;;;;;;;;;;;;22.63;24.68;99062.38;5123152;28;1905;-75
2020/12/21 12:57:56;;;;;;;;;;;;;;;22.58;24.75;99063.63;5123401;28;661;-76